Time;durP1;ratioP1;P1;durP2;ratioP2;P2;SDS_P1;SDS_P2;PMS_P1;PMS_P2;Temp;Humidity;BMP_temperature;BMP_pressure;BME280_temperature;BME280_humidity;BME280_pressure;Samples;Min_cycle;Max_cycle;Signal;HPM_P1;HPM_P2
2021/04/16 00:02:04;;;;;;;2.75;1.40;;;;;;;8.11;67.27;102222.25;5003230;28;20025;-79
2021/04/16 00:04:30;;;;;;;2.47;1.60;;;;;;;8.18;66.97;102219.19;4996996;28;20459;-80
2021/04/16 00:06:56;;;;;;;2.55;1.33;;;;;;;8.02;67.75;102229.44;4992477;28;20037;-79
2021/04/16 00:09:23;;;;;;;2.47;1.40;;;;;;;8.23;66.17;102226.34;5011251;28;20057;-79
2021/04/16 00:11:49;;;;;;;2.22;1.30;;;;;;;8.27;65.43;102217.41;4996297;28;20057;-80
2021/04/16 00:14:15;;;;;;;2.75;1.50;;;;;;;8.24;65.39;102223.34;4996919;28;20064;-79
2021/04/16 00:16:41;;;;;;;3.97;1.40;;;;;;;7.85;67.28;102221.19;5016912;28;20038;-79
2021/04/16 00:19:06;;;;;;;3.53;1.65;;;;;;;7.66;69.65;102220.47;4990242;28;20509;-79
2021/04/16 00:21:32;;;;;;;2.20;1.30;;;;;;;7.59;69.85;102213.91;5007993;28;20026;-79
2021/04/16 00:23:58;;;;;;;2.35;1.30;;;;;;;7.71;68.69;102212.31;4997234;28;20056;-79
2021/04/16 00:26:24;;;;;;;2.78;1.30;;;;;;;7.74;68.83;102216.31;4992840;28;20033;-79
2021/04/16 00:28:49;;;;;;;2.42;1.15;;;;;;;7.77;68.56;102213.03;4978818;28;20042;-79
2021/04/16 00:31:21;;;;;;;5.38;1.30;;;;;;;7.87;67.86;102210.97;5014476;28;20038;-80
2021/04/16 00:33:46;;;;;;;3.20;1.40;;;;;;;7.85;68.57;102209.66;5001816;28;20506;-79
2021/04/16 00:36:14;;;;;;;3.17;1.33;;;;;;;7.78;68.82;102210.03;5015653;28;20109;-80
2021/04/16 00:38:40;;;;;;;2.03;1.30;;;;;;;7.84;69.20;102208.09;5009227;28;20018;-79
2021/04/16 00:41:08;;;;;;;2.78;1.33;;;;;;;7.41;69.61;102204.03;4990998;28;20230;-79
2021/04/16 00:43:35;;;;;;;4.30;1.70;;;;;;;7.47;70.60;102195.59;4977645;28;20417;-79
2021/04/16 00:46:10;;;;;;;2.92;1.48;;;;;;;7.44;70.04;102203.44;4997506;28;20044;-79
2021/04/16 00:48:37;;;;;;;2.67;1.48;;;;;;;7.39;71.09;102201.66;4986235;28;20027;-79
2021/04/16 00:51:06;;;;;;;2.88;1.58;;;;;;;7.33;72.18;102202.84;5011457;28;20034;-79
2021/04/16 00:53:34;;;;;;;3.17;1.40;;;;;;;7.46;71.52;102191.34;4971987;28;20030;-79
2021/04/16 00:56:00;;;;;;;3.85;1.20;;;;;;;7.48;71.91;102191.84;4994564;28;20068;-79
2021/04/16 00:58:29;;;;;;;5.60;1.67;;;;;;;7.77;70.43;102195.06;4993881;28;20395;-80
2021/04/16 01:00:56;;;;;;;3.60;1.30;;;;;;;7.56;71.07;102193.03;4991642;28;20037;-79
2021/04/16 01:03:23;;;;;;;2.60;1.30;;;;;;;7.60;71.53;102184.13;4989592;28;20061;-79
2021/04/16 01:05:48;;;;;;;4.75;1.80;;;;;;;7.19;74.19;102193.97;5013971;28;20387;-79
2021/04/16 01:08:15;;;;;;;2.15;1.67;;;;;;;6.93;74.57;102195.47;4996524;28;20087;-79
2021/04/16 01:10:41;;;;;;;6.25;1.65;;;;;;;7.03;74.14;102190.75;4980514;28;20065;-79
2021/04/16 01:13:07;;;;;;;3.13;1.40;;;;;;;7.25;72.94;102190.91;4979339;28;20040;-79
2021/04/16 01:15:38;;;;;;;2.42;1.30;;;;;;;7.01;73.27;102192.09;5014348;28;20109;-79
2021/04/16 01:18:27;;;;;;;2.25;1.35;;;;;;;6.91;73.35;102197.66;5011293;28;20065;-79
2021/04/16 01:20:55;;;;;;;4.30;1.35;;;;;;;6.98;74.65;102204.22;4996082;28;20401;-79
2021/04/16 01:23:42;;;;;;;5.28;1.45;;;;;;;6.84;75.80;102199.88;5005386;28;20033;-80
2021/04/16 01:26:10;;;;;;;4.07;1.30;;;;;;;6.85;75.19;102198.81;4993993;28;20124;-78
2021/04/16 01:28:35;;;;;;;2.42;1.30;;;;;;;6.92;75.76;102199.22;4972980;28;20022;-80
2021/04/16 01:31:10;;;;;;;3.58;1.45;;;;;;;7.08;74.96;102200.59;4978763;28;20070;-80
2021/04/16 01:33:36;;;;;;;5.25;1.80;;;;;;;6.99;75.58;102205.00;5012249;28;20042;-80
2021/04/16 01:36:15;;;;;;;2.92;1.85;;;;;;;6.89;75.92;102192.56;5010251;28;20034;-77
2021/04/16 01:38:43;;;;;;;2.90;1.83;;;;;;;7.08;75.69;102196.00;4990916;28;20026;-78
2021/04/16 01:41:10;;;;;;;4.40;1.60;;;;;;;6.96;76.05;102195.69;4999271;28;20038;-78
2021/04/16 01:43:42;;;;;;;4.25;2.00;;;;;;;7.12;76.02;102191.66;5007617;28;20029;-78
2021/04/16 01:46:18;;;;;;;;;;;;;;;7.30;75.10;102190.81;4973234;28;20330;-78
2021/04/16 01:48:50;;;;;;;3.10;1.35;;;;;;;7.24;76.42;102186.63;4987445;28;19913;-78
2021/04/16 01:51:22;;;;;;;2.95;1.73;;;;;;;6.98;77.01;102190.84;4988635;28;20430;-78
2021/04/16 01:53:49;;;;;;;3.22;1.75;;;;;;;6.77;77.98;102181.53;5007642;28;20033;-80
2021/04/16 01:56:14;;;;;;;6.88;1.85;;;;;;;6.78;79.49;102183.09;5006402;28;20465;-78
2021/04/16 01:58:40;;;;;;;2.63;1.67;;;;;;;7.04;77.78;102189.66;4994230;28;20120;-78
2021/04/16 02:01:08;;;;;;;2.40;1.50;;;;;;;7.06;77.98;102184.81;5004849;28;20026;-78
2021/04/16 02:03:34;;;;;;;3.60;1.45;;;;;;;6.90;78.24;102194.16;4996081;28;20033;-80
2021/04/16 02:05:59;;;;;;;3.75;1.63;;;;;;;6.96;78.42;102186.84;4993544;28;20040;-78
2021/04/16 02:08:25;;;;;;;4.47;1.58;;;;;;;7.07;78.09;102193.63;4978056;28;20085;-79
2021/04/16 02:10:51;;;;;;;7.68;2.03;;;;;;;7.13;77.58;102193.25;4990954;28;20477;-80
2021/04/16 02:13:17;;;;;;;7.85;2.17;;;;;;;7.07;77.61;102183.72;5001139;28;20044;-78
2021/04/16 02:15:42;;;;;;;4.22;2.03;;;;;;;7.25;77.87;102182.06;4994779;28;20036;-78
2021/04/16 02:18:08;;;;;;;4.30;1.80;;;;;;;7.12;77.51;102193.56;5008365;28;20498;-78
2021/04/16 02:20:34;;;;;;;4.20;1.98;;;;;;;7.01;78.80;102184.06;4991125;28;20029;-78
2021/04/16 02:23:00;;;;;;;3.83;1.58;;;;;;;7.10;79.10;102182.34;5005464;28;20056;-78
2021/04/16 02:25:25;;;;;;;5.32;1.58;;;;;;;7.21;78.47;102184.56;4997009;28;20117;-79
2021/04/16 02:27:51;;;;;;;2.58;1.50;;;;;;;7.15;79.56;102180.38;4988421;28;20042;-79
2021/04/16 02:30:25;;;;;;;3.22;1.73;;;;;;;6.94;80.23;102181.78;4962205;28;20586;-78
2021/04/16 02:32:50;;;;;;;3.83;1.60;;;;;;;6.97;80.79;102183.88;4993843;28;20385;-78
2021/04/16 02:35:17;;;;;;;3.55;1.65;;;;;;;7.10;80.30;102185.03;4992927;28;20909;-79
2021/04/16 02:37:42;;;;;;;4.80;1.60;;;;;;;7.13;79.97;102195.13;4992484;28;20054;-79
2021/04/16 02:40:10;;;;;;;4.97;1.80;;;;;;;7.22;80.91;102188.00;4994581;28;20498;-79
2021/04/16 02:42:36;;;;;;;4.32;1.88;;;;;;;7.26;80.00;102189.81;5006468;28;20034;-78
2021/04/16 02:45:05;;;;;;;2.35;1.83;;;;;;;7.14;81.07;102189.47;4990402;28;20038;-78
2021/04/16 02:47:30;;;;;;;3.90;1.77;;;;;;;7.20;81.07;102185.63;5011724;28;20034;-78
2021/04/16 02:49:56;;;;;;;4.30;1.83;;;;;;;6.97;82.03;102178.50;5009612;28;20036;-78
2021/04/16 02:52:22;;;;;;;6.13;1.80;;;;;;;7.01;82.10;102184.88;5009908;28;20034;-78
2021/04/16 02:54:47;;;;;;;2.30;1.63;;;;;;;6.90;82.39;102178.09;5011067;28;20045;-78
2021/04/16 02:57:13;;;;;;;3.20;1.70;;;;;;;7.20;81.16;102174.13;4992129;28;20042;-78
2021/04/16 02:59:38;;;;;;;2.28;1.60;;;;;;;7.19;81.26;102173.34;5003786;28;20068;-78
2021/04/16 03:02:05;;;;;;;6.57;2.13;;;;;;;7.30;81.54;102166.72;5005968;28;20483;-78
2021/04/16 03:04:30;;;;;;;6.07;2.10;;;;;;;7.37;80.76;102165.53;4994641;28;20048;-78
2021/04/16 03:06:55;;;;;;;4.10;1.80;;;;;;;7.35;80.76;102159.66;4982777;28;20057;-78
2021/04/16 03:09:21;;;;;;;3.65;2.15;;;;;;;7.44;79.99;102157.88;5004239;28;20034;-78
2021/04/16 03:11:46;;;;;;;4.05;2.40;;;;;;;7.47;80.45;102160.00;4982016;28;20564;-79
2021/04/16 03:14:12;;;;;;;5.78;2.20;;;;;;;7.37;80.86;102155.63;4999258;28;20038;-78
2021/04/16 03:16:38;;;;;;;9.63;2.25;;;;;;;7.32;81.03;102156.50;5002252;28;20037;-78
2021/04/16 03:19:06;;;;;;;6.60;2.30;;;;;;;7.24;82.34;102156.38;5003796;28;20017;-79
2021/04/16 03:21:31;;;;;;;4.90;2.10;;;;;;;7.06;83.17;102165.25;4990594;28;20034;-79
2021/04/16 03:23:57;;;;;;;5.53;2.35;;;;;;;7.06;83.57;102162.59;5015239;28;20112;-78
2021/04/16 03:26:24;;;;;;;3.55;2.00;;;;;;;6.94;84.09;102160.38;5009856;28;20065;-78
2021/04/16 03:28:54;;;;;;;6.40;2.50;;;;;;;7.09;83.75;102164.66;4997373;28;20109;-78
2021/04/16 03:31:20;;;;;;;2.23;2.00;;;;;;;7.13;83.84;102166.47;4991555;28;20057;-78
2021/04/16 03:33:47;;;;;;;6.50;2.70;;;;;;;6.75;85.70;102164.97;4996880;28;20163;-78
2021/04/16 03:36:12;;;;;;;4.68;2.40;;;;;;;6.81;85.08;102163.81;4996692;28;20041;-78
2021/04/16 03:38:38;;;;;;;7.75;2.17;;;;;;;6.80;85.86;102166.75;5013098;28;20080;-78
2021/04/16 03:41:04;;;;;;;4.03;2.17;;;;;;;6.89;85.25;102168.47;5005372;28;20538;-78
2021/04/16 03:43:29;;;;;;;4.93;2.67;;;;;;;6.91;85.13;102168.97;4986771;28;20034;-78
2021/04/16 03:45:54;;;;;;;4.72;2.65;;;;;;;6.79;84.70;102170.53;4996294;28;20030;-78
2021/04/16 03:48:20;;;;;;;3.53;2.33;;;;;;;6.54;86.65;102171.72;4993648;28;20034;-78
2021/04/16 03:50:45;;;;;;;7.53;2.65;;;;;;;6.64;86.42;102168.84;4982382;28;20097;-79
2021/04/16 03:53:11;;;;;;;4.70;2.17;;;;;;;6.69;86.51;102173.34;5009179;28;20041;-78
2021/04/16 03:55:38;;;;;;;6.63;2.47;;;;;;;6.72;86.80;102168.22;5010661;28;20022;-79
2021/04/16 03:58:07;;;;;;;5.75;2.30;;;;;;;6.80;86.17;102172.09;5015839;28;20148;-79
2021/04/16 04:00:37;;;;;;;4.93;2.40;;;;;;;6.81;85.70;102171.84;4992139;28;20033;-78
2021/04/16 04:03:03;;;;;;;9.07;2.42;;;;;;;6.82;85.17;102170.72;5011411;28;20030;-79
2021/04/16 04:05:28;;;;;;;6.38;2.50;;;;;;;6.81;85.66;102166.47;4994956;28;20041;-79
2021/04/16 04:07:54;;;;;;;8.13;2.53;;;;;;;6.84;85.50;102157.84;5004776;28;20034;-79
2021/04/16 04:10:21;;;;;;;6.03;2.63;;;;;;;6.83;85.56;102164.28;5013718;28;20033;-79
2021/04/16 04:12:47;;;;;;;5.93;2.47;;;;;;;6.42;86.51;102168.66;5014602;28;20058;-79
2021/04/16 04:15:15;;;;;;;4.07;2.60;;;;;;;6.19;89.12;102177.53;4993817;28;20072;-79
2021/04/16 04:17:40;;;;;;;6.53;3.00;;;;;;;6.44;88.71;102161.16;4998099;28;20032;-79
2021/04/16 04:20:18;;;;;;;6.35;2.97;;;;;;;6.23;89.61;102173.97;5012102;28;20026;-79
2021/04/16 04:22:44;;;;;;;7.97;3.45;;;;;;;6.45;89.71;102165.41;5009353;28;20021;-79
2021/04/16 04:25:10;;;;;;;10.15;3.10;;;;;;;6.55;88.80;102167.13;4996131;28;20573;-79
2021/04/16 04:27:35;;;;;;;4.80;3.33;;;;;;;6.50;89.51;102160.00;4995803;28;20124;-79
2021/04/16 04:30:02;;;;;;;6.05;3.30;;;;;;;6.51;88.65;102158.09;4995465;28;20117;-79
2021/04/16 04:32:28;;;;;;;7.65;3.00;;;;;;;6.51;88.72;102156.22;4995475;28;20046;-79
2021/04/16 04:34:53;;;;;;;6.38;2.90;;;;;;;6.68;87.72;102156.50;4973817;28;20050;-79
2021/04/16 04:37:19;;;;;;;6.57;2.58;;;;;;;6.70;87.33;102158.88;5020034;28;20037;-79
2021/04/16 04:39:45;;;;;;;6.25;3.42;;;;;;;6.59;87.60;102158.25;4988718;28;20053;-79
2021/04/16 04:42:11;;;;;;;7.18;3.35;;;;;;;6.72;86.87;102162.84;4979147;28;20049;-79
2021/04/16 04:44:37;;;;;;;5.82;2.75;;;;;;;6.68;87.00;102161.84;4996840;28;20072;-79
2021/04/16 04:47:03;;;;;;;6.30;2.72;;;;;;;6.63;86.47;102159.25;4997742;28;20453;-79
2021/04/16 04:49:29;;;;;;;6.47;2.67;;;;;;;6.28;86.78;102165.09;5010124;28;20049;-79
2021/04/16 04:52:15;;;;;;;6.28;2.95;;;;;;;6.41;88.70;102161.72;5014760;28;20034;-79
2021/04/16 04:54:46;;;;;;;5.63;2.80;;;;;;;6.48;88.24;102167.50;4995442;28;20029;-79
2021/04/16 04:57:12;;;;;;;;;;;;;;;6.52;87.92;102181.91;4994912;28;20407;-79
2021/04/16 04:59:37;;;;;;;6.78;3.00;;;;;;;6.61;86.70;102179.34;5001581;28;19943;-79
2021/04/16 05:02:03;;;;;;;9.18;2.75;;;;;;;6.62;86.71;102179.06;4994408;28;21297;-79
2021/04/16 05:04:28;;;;;;;6.72;3.33;;;;;;;6.68;86.81;102177.91;4991949;28;20132;-79
2021/04/16 05:06:54;;;;;;;4.80;2.83;;;;;;;6.78;86.78;102172.41;5013695;28;20144;-79
2021/04/16 05:09:19;;;;;;;3.97;2.60;;;;;;;6.63;87.04;102180.66;4997342;28;20029;-79
2021/04/16 05:11:45;;;;;;;7.13;3.30;;;;;;;6.82;86.86;102173.41;4990369;28;20434;-79
2021/04/16 05:14:10;;;;;;;6.57;3.30;;;;;;;6.84;86.92;102181.94;5011369;28;20573;-79
2021/04/16 05:16:35;;;;;;;8.18;3.03;;;;;;;6.42;87.44;102179.38;4989200;28;20026;-79
2021/04/16 05:19:02;;;;;;;8.80;3.10;;;;;;;6.68;87.25;102172.53;4996413;28;20037;-79
2021/04/16 05:21:28;;;;;;;5.90;2.67;;;;;;;6.64;87.53;102181.47;4978013;28;20034;-79
2021/04/16 05:23:55;;;;;;;6.28;3.00;;;;;;;6.83;86.58;102177.66;5012124;28;20072;-78
2021/04/16 05:26:21;;;;;;;6.32;3.03;;;;;;;6.56;85.90;102185.59;5013127;28;20116;-79
2021/04/16 05:28:49;;;;;;;5.32;3.00;;;;;;;6.60;86.96;102191.94;5002856;28;20310;-79
2021/04/16 05:31:14;;;;;;;5.13;3.00;;;;;;;6.38;87.28;102194.41;4992555;28;20041;-79
2021/04/16 05:33:40;;;;;;;6.78;3.72;;;;;;;6.41;87.64;102196.47;5005777;28;20483;-79
2021/04/16 05:36:05;;;;;;;5.90;2.83;;;;;;;6.70;86.34;102202.50;5008184;28;20029;-79
2021/04/16 05:38:31;;;;;;;3.95;2.78;;;;;;;6.86;85.92;102195.03;5003571;28;20030;-79
2021/04/16 05:40:56;;;;;;;6.45;3.13;;;;;;;6.98;85.18;102201.53;4979822;28;20172;-79
2021/04/16 05:43:22;;;;;;;6.45;3.30;;;;;;;6.99;85.35;102205.81;4995592;28;20199;-79
2021/04/16 05:45:47;;;;;;;5.40;3.00;;;;;;;6.92;85.27;102200.03;5005161;28;20113;-79
2021/04/16 05:48:13;;;;;;;5.55;3.20;;;;;;;6.94;85.84;102197.84;5017172;28;20420;-79
2021/04/16 05:50:39;;;;;;;8.02;3.00;;;;;;;6.92;85.46;102201.91;5007746;28;20049;-79
2021/04/16 05:53:04;;;;;;;8.68;3.10;;;;;;;6.96;85.32;102201.03;5005820;28;20033;-80
2021/04/16 05:55:30;;;;;;;6.43;3.05;;;;;;;7.27;84.39;102207.50;5003664;28;20037;-79
2021/04/16 05:57:56;;;;;;;6.53;3.20;;;;;;;7.42;84.01;102197.59;5015722;28;20033;-79
2021/04/16 06:00:22;;;;;;;5.85;3.10;;;;;;;7.58;83.67;102202.38;4991131;28;20041;-79
2021/04/16 06:02:48;;;;;;;6.97;3.78;;;;;;;7.59;82.90;102195.16;4984209;28;20117;-80
2021/04/16 06:05:18;;;;;;;5.80;3.28;;;;;;;7.68;82.68;102202.22;5003329;28;20462;-79
2021/04/16 06:07:44;;;;;;;7.70;3.58;;;;;;;7.93;82.37;102206.28;4991236;28;20052;-79
2021/04/16 06:10:11;;;;;;;5.65;3.30;;;;;;;8.26;81.06;102202.41;5014642;28;20117;-80
2021/04/16 06:12:37;;;;;;;6.00;3.47;;;;;;;8.06;81.37;102197.44;4981304;28;20036;-80
2021/04/16 06:15:28;;;;;;;6.53;3.65;;;;;;;8.23;81.76;102205.66;4996128;28;20033;-80
2021/04/16 06:17:54;;;;;;;8.00;3.70;;;;;;;8.48;81.26;102194.41;4889006;29;20127;-80
2021/04/16 06:20:23;;;;;;;9.43;4.05;;;;;;;8.64;80.09;102194.88;4903244;29;20083;-81
2021/04/16 06:22:50;;;;;;;8.88;3.72;;;;;;;8.65;79.85;102193.78;4917683;29;20194;-80
2021/04/16 06:25:19;;;;;;;7.78;3.95;;;;;;;8.74;79.20;102186.59;4900277;29;20040;-80
2021/04/16 06:27:45;;;;;;;6.57;3.78;;;;;;;8.81;79.13;102186.94;4913752;29;20065;-80
2021/04/16 06:30:12;;;;;;;7.60;4.13;;;;;;;8.91;78.44;102186.72;4919051;29;20473;-81
2021/04/16 06:32:38;;;;;;;8.40;4.25;;;;;;;9.35;77.04;102186.66;4923956;29;20091;-81
2021/04/16 06:35:05;;;;;;;10.38;4.30;;;;;;;9.58;75.21;102185.50;4921092;29;20052;-81
2021/04/16 06:37:31;;;;;;;6.63;3.60;;;;;;;9.96;73.66;102183.13;4918028;29;20040;-81
2021/04/16 06:39:56;;;;;;;7.45;3.78;;;;;;;10.10;72.40;102199.19;4913644;29;20044;-80
2021/04/16 06:42:28;;;;;;;9.13;3.58;;;;;;;10.57;69.64;102203.69;4915634;29;20043;-82
2021/04/16 06:44:57;;;;;;;7.30;3.38;;;;;;;10.42;67.94;102193.38;4903483;29;20040;-80
2021/04/16 06:47:31;;;;;;;6.40;3.72;;;;;;;10.62;68.03;102196.28;4904345;29;20132;-80
2021/04/16 06:49:59;;;;;;;12.10;2.88;;;;;;;10.86;66.38;102203.84;4897607;29;20115;-80
2021/04/16 06:52:33;;;;;;;10.75;3.65;;;;;;;10.81;65.96;102201.31;4913366;29;20036;-79
2021/04/16 06:55:12;;;;;;;9.68;4.05;;;;;;;10.91;64.45;102198.31;4965050;28;20081;-82
2021/04/16 06:57:48;;;;;;;7.95;3.15;;;;;;;11.28;62.31;102194.94;5009753;28;20046;-79
2021/04/16 07:02:59;;;;;;;5.38;2.65;;;;;;;11.18;60.18;102191.78;4982585;28;20039;-73
2021/04/16 07:05:34;;;;;;;4.22;2.60;;;;;;;11.04;58.91;102191.16;4988327;28;20425;-73
2021/04/16 07:08:00;;;;;;;4.63;2.55;;;;;;;11.29;59.55;102188.41;4985722;28;20034;-73
2021/04/16 07:10:32;;;;;;;4.50;2.70;;;;;;;11.90;59.20;102189.81;4985370;28;20077;-74
2021/04/16 07:13:00;;;;;;;7.13;2.63;;;;;;;12.02;58.48;102183.72;4987649;28;20038;-73
2021/04/16 07:15:35;;;;;;;9.00;3.20;;;;;;;12.21;57.30;102181.38;4986004;28;20039;-73
2021/04/16 07:18:03;;;;;;;4.32;2.60;;;;;;;12.11;55.38;102179.06;4988977;28;20030;-73
2021/04/16 07:20:28;;;;;;;4.30;2.67;;;;;;;12.13;54.19;102172.22;4973203;28;20568;-73
2021/04/16 07:22:55;;;;;;;4.43;2.83;;;;;;;11.81;55.91;102185.56;4989624;28;20038;-73
2021/04/16 07:25:42;;;;;;;7.93;2.42;;;;;;;12.08;53.99;102177.78;4990103;28;20405;-73
2021/04/16 07:28:09;;;;;;;3.03;2.15;;;;;;;12.30;53.47;102177.50;4984748;28;20033;-73
2021/04/16 07:30:38;;;;;;;7.60;1.85;;;;;;;12.63;51.95;102186.47;4983398;28;20057;-73
2021/04/16 07:33:37;;;;;;;3.35;2.03;;;;;;;12.85;51.52;102185.34;4989987;28;20109;-73
2021/04/16 07:36:13;;;;;;;5.35;1.85;;;;;;;12.85;51.91;102187.25;4985598;28;20189;-74
2021/04/16 07:38:39;;;;;;;4.57;1.80;;;;;;;13.13;50.91;102188.25;4987924;28;20553;-74
2021/04/16 07:41:27;;;;;;;6.03;1.85;;;;;;;13.18;50.76;102180.72;4989617;28;20153;-74
2021/04/16 07:43:56;;;;;;;8.45;2.70;;;;;;;13.41;51.25;102189.25;4982256;28;20026;-73
2021/04/16 07:46:27;;;;;;;3.60;2.10;;;;;;;13.27;51.45;102194.16;4989495;28;20065;-74
2021/04/16 07:49:23;;;;;;;9.73;2.25;;;;;;;13.13;52.41;102183.66;4972410;28;20449;-73
2021/04/16 07:51:52;;;;;;;4.78;1.45;;;;;;;13.44;50.83;102191.28;4979354;28;20051;-73
2021/04/16 07:54:20;;;;;;;7.40;2.28;;;;;;;13.83;49.32;102190.63;4970681;28;20508;-73
2021/04/16 07:56:46;;;;;;;2.67;1.70;;;;;;;13.91;48.59;102187.03;4983611;28;20065;-73
2021/04/16 07:59:14;;;;;;;2.80;1.25;;;;;;;14.17;46.25;102195.56;4986205;28;20065;-73
2021/04/16 08:01:48;;;;;;;2.63;1.20;;;;;;;14.25;45.87;102188.44;4988316;28;20042;-73
2021/04/16 08:04:19;;;;;;;1.60;1.35;;;;;;;13.53;46.40;102191.94;4982611;28;20038;-73
2021/04/16 08:06:48;;;;;;;2.35;1.30;;;;;;;13.82;47.29;102204.53;4985108;28;20499;-73
2021/04/16 08:09:35;;;;;;;2.55;1.42;;;;;;;14.18;46.75;102202.59;4990898;28;20034;-73
2021/04/16 08:12:00;;;;;;;1.63;1.17;;;;;;;14.18;45.37;102207.22;4992165;28;20054;-74
2021/04/16 08:14:29;;;;;;;3.97;1.45;;;;;;;14.45;44.54;102201.09;4973805;28;20046;-73
2021/04/16 08:17:01;;;;;;;1.88;1.05;;;;;;;14.40;44.77;102204.06;4988900;28;20023;-73
2021/04/16 08:19:28;;;;;;;2.42;1.10;;;;;;;14.45;44.10;102191.06;4989751;28;20096;-73
2021/04/16 08:21:58;;;;;;;3.70;1.30;;;;;;;14.19;44.45;102193.31;4990939;28;20037;-73
2021/04/16 08:24:48;;;;;;;2.75;1.15;;;;;;;14.48;45.07;102197.69;4991717;28;20042;-73
2021/04/16 08:27:27;;;;;;;2.47;1.30;;;;;;;14.78;43.83;102195.47;4987692;28;20084;-73
2021/04/16 08:29:55;;;;;;;1.40;1.30;;;;;;;14.69;41.74;102194.81;4987515;28;20030;-72
2021/04/16 08:32:31;;;;;;;1.02;0.90;;;;;;;14.61;43.68;102183.00;4988980;28;20121;-73
2021/04/16 08:35:15;;;;;;;1.42;1.13;;;;;;;14.86;43.36;102191.81;4992876;28;20027;-73
2021/04/16 08:37:47;;;;;;;1.52;0.90;;;;;;;14.97;42.45;102179.31;4984703;28;20043;-73
2021/04/16 08:40:25;;;;;;;2.53;1.20;;;;;;;15.30;41.67;102183.34;4989541;28;20037;-73
2021/04/16 08:42:51;;;;;;;1.92;1.25;;;;;;;15.44;42.05;102187.56;4988674;28;20721;-73
2021/04/16 08:45:22;;;;;;;6.05;1.05;;;;;;;15.21;42.46;102184.66;4988898;28;20054;-73
2021/04/16 08:47:53;;;;;;;;;;;;;;;15.14;41.00;102187.16;4992845;28;20371;-73
2021/04/16 08:50:22;;;;;;;5.07;1.05;;;;;;;15.41;40.73;102193.69;4991993;28;20017;-73
2021/04/16 08:52:51;;;;;;;5.97;0.90;;;;;;;15.44;40.63;102191.09;4992561;28;20125;-73
2021/04/16 08:55:27;;;;;;;2.80;1.00;;;;;;;15.44;39.96;102188.38;4987917;28;20774;-74
2021/04/16 08:57:57;;;;;;;3.30;1.13;;;;;;;15.49;40.64;102176.44;4994053;28;20102;-73
2021/04/16 09:00:27;;;;;;;4.00;1.17;;;;;;;15.39;40.57;102185.88;4992603;28;20061;-73
2021/04/16 09:02:56;;;;;;;1.00;0.90;;;;;;;14.99;40.71;102187.91;4972863;28;20030;-73
2021/04/16 09:05:27;;;;;;;5.75;1.00;;;;;;;14.64;41.36;102187.72;4975239;28;20585;-73
2021/04/16 09:07:56;;;;;;;1.63;1.13;;;;;;;15.24;41.11;102187.44;4991414;28;20046;-73
2021/04/16 09:10:24;;;;;;;2.25;1.00;;;;;;;15.38;40.32;102189.75;4993395;28;20105;-74
2021/04/16 09:12:53;;;;;;;3.13;0.80;;;;;;;15.76;39.35;102186.44;4989144;28;20756;-73
2021/04/16 09:15:18;;;;;;;3.38;0.90;;;;;;;15.62;37.53;102188.81;4989632;28;20042;-74
2021/04/16 09:17:53;;;;;;;2.60;1.10;;;;;;;15.73;40.00;102181.72;4984709;28;20035;-74
2021/04/16 09:20:39;;;;;;;3.30;0.90;;;;;;;15.86;38.10;102181.25;4988318;28;20034;-74
2021/04/16 09:23:19;;;;;;;1.20;0.77;;;;;;;16.12;38.87;102177.97;4996797;28;20035;-74
2021/04/16 09:25:50;;;;;;;2.13;0.80;;;;;;;16.38;38.03;102188.22;4985323;28;20030;-74
2021/04/16 09:28:21;;;;;;;1.73;0.90;;;;;;;16.55;37.27;102187.88;4973262;28;20121;-74
2021/04/16 09:31:20;;;;;;;1.73;1.08;;;;;;;16.15;37.68;102180.78;4984548;28;20057;-73
2021/04/16 09:33:46;;;;;;;5.30;1.05;;;;;;;16.33;37.84;102173.00;4987190;28;20046;-73
2021/04/16 09:36:26;;;;;;;2.00;0.80;;;;;;;16.64;37.97;102172.13;4987680;28;20026;-73
2021/04/16 09:38:52;;;;;;;1.23;1.02;;;;;;;16.40;36.81;102175.06;4986082;28;20038;-73
2021/04/16 09:41:22;;;;;;;2.95;1.10;;;;;;;16.12;37.50;102176.03;4986271;28;20031;-73
2021/04/16 09:43:59;;;;;;;1.73;1.02;;;;;;;16.40;37.66;102169.63;4983868;28;20061;-74
2021/04/16 09:46:31;;;;;;;2.50;1.08;;;;;;;16.61;37.78;102165.44;4981969;28;20046;-74
2021/04/16 09:49:02;;;;;;;1.25;1.08;;;;;;;16.93;36.98;102176.97;4983862;28;20034;-73
2021/04/16 09:51:32;;;;;;;3.10;1.17;;;;;;;17.04;37.05;102177.94;4982674;28;20043;-73
2021/04/16 09:54:07;;;;;;;2.00;1.15;;;;;;;17.13;37.09;102173.06;4985983;28;20037;-73
2021/04/16 09:56:33;;;;;;;1.92;1.20;;;;;;;17.03;38.25;102160.06;4989418;28;20026;-73
2021/04/16 09:59:05;;;;;;;5.22;1.27;;;;;;;17.07;37.73;102177.25;4979087;28;20501;-73
2021/04/16 10:01:31;;;;;;;2.00;1.00;;;;;;;17.29;36.79;102171.03;4986983;28;20142;-73
2021/04/16 10:04:00;;;;;;;0.98;0.75;;;;;;;17.37;37.73;102169.19;4970872;28;20046;-73
2021/04/16 10:06:27;;;;;;;2.38;0.80;;;;;;;17.32;36.62;102156.69;4982991;28;20297;-73
2021/04/16 10:09:11;;;;;;;1.10;1.00;;;;;;;17.27;37.11;102169.81;5004603;28;20026;-73
2021/04/16 10:11:39;;;;;;;1.23;0.75;;;;;;;17.33;36.79;102173.81;4990410;28;20050;-73
2021/04/16 10:14:25;;;;;;;2.20;0.77;;;;;;;17.48;36.37;102170.19;4990281;28;20022;-73
2021/04/16 10:17:11;;;;;;;3.83;0.98;;;;;;;17.22;36.50;102162.72;4985135;28;20117;-73
2021/04/16 10:19:41;;;;;;;3.67;0.90;;;;;;;17.52;36.85;102168.31;4983621;28;20038;-73
2021/04/16 10:22:30;;;;;;;2.45;1.10;;;;;;;17.78;36.60;102154.72;4986951;28;20042;-73
2021/04/16 12:39:11;;;;;;;2.88;1.20;;;;;;;16.78;34.97;102116.03;4979886;28;20026;-73
2021/04/16 12:41:43;;;;;;;3.73;0.77;;;;;;;16.49;35.45;102111.19;4963739;28;20038;-71
2021/04/16 12:44:27;;;;;;;2.97;0.70;;;;;;;16.83;35.96;102121.19;4974769;28;20438;-73
2021/04/16 12:46:56;;;;;;;1.88;0.85;;;;;;;16.97;35.50;102124.19;4987752;28;20038;-73
2021/04/16 12:49:26;;;;;;;1.88;0.93;;;;;;;16.13;35.94;102104.22;4995305;28;20034;-72
2021/04/16 12:51:52;;;;;;;2.00;0.90;;;;;;;16.37;36.01;102103.16;4981652;28;20030;-72
2021/04/16 12:54:17;;;;;;;2.83;0.80;;;;;;;16.48;36.66;102103.38;4998449;28;20034;-72
2021/04/16 12:56:43;;;;;;;2.75;0.70;;;;;;;16.59;36.43;102110.63;4982620;28;20080;-71
2021/04/16 12:59:18;;;;;;;3.17;0.88;;;;;;;17.01;37.01;102097.78;5003528;28;20051;-72
2021/04/16 13:01:45;;;;;;;2.80;0.80;;;;;;;17.12;36.93;102098.78;5020212;22;20041;-79
2021/04/16 13:04:12;;;;;;;40.00;2.05;;;;;;;17.35;37.08;102100.69;5007112;28;20084;-79
2021/04/16 13:06:42;;;;;;;3.33;1.05;;;;;;;17.10;35.38;102090.19;4996910;28;20042;-79
2021/04/16 13:09:10;;;;;;;2.85;0.85;;;;;;;17.27;35.71;102093.53;5022732;28;20053;-79
2021/04/16 13:11:36;;;;;;;2.67;0.80;;;;;;;17.18;35.30;102085.66;5010220;28;20045;-78
2021/04/16 13:14:03;;;;;;;2.75;1.30;;;;;;;17.22;35.56;102091.94;4995069;28;20082;-78
2021/04/16 13:16:29;;;;;;;5.95;1.20;;;;;;;17.18;35.61;102093.81;5015624;28;20045;-77
2021/04/16 13:18:57;;;;;;;3.05;0.98;;;;;;;16.90;36.02;102080.50;5013073;28;20025;-77
2021/04/16 13:21:34;;;;;;;1.77;0.95;;;;;;;16.98;36.26;102076.75;4990101;28;20671;-77
2021/04/16 13:24:00;;;;;;;3.08;1.27;;;;;;;16.86;35.53;102081.59;4997719;28;20040;-78
2021/04/16 13:26:26;;;;;;;2.40;1.10;;;;;;;16.59;35.99;102079.94;5008145;28;20034;-77
2021/04/16 13:28:52;;;;;;;2.13;1.20;;;;;;;16.83;36.79;102085.03;5010281;28;20118;-78
2021/04/16 13:31:18;;;;;;;3.92;1.17;;;;;;;17.06;37.50;102077.66;5015274;28;20477;-78
2021/04/16 13:33:46;;;;;;;3.70;1.05;;;;;;;16.63;36.50;102076.09;5007491;28;20110;-78
2021/04/16 13:36:17;;;;;;;2.97;1.17;;;;;;;16.61;36.77;102074.88;5008391;28;20057;-78
2021/04/16 13:38:44;;;;;;;1.77;1.10;;;;;;;16.71;36.86;102072.38;5010844;28;20032;-78
2021/04/16 13:41:10;;;;;;;4.45;1.17;;;;;;;17.17;36.88;102075.13;5012267;28;20092;-78
2021/04/16 13:43:35;;;;;;;4.63;1.30;;;;;;;17.07;36.37;102071.84;4996905;28;20030;-78
2021/04/16 13:46:03;;;;;;;3.65;1.40;;;;;;;16.89;37.83;102067.25;4998079;28;20046;-78
2021/04/16 13:48:29;;;;;;;2.85;1.23;;;;;;;16.76;37.38;102069.34;4995899;28;20071;-78
2021/04/16 13:50:55;;;;;;;3.65;1.02;;;;;;;16.88;39.18;102065.66;5006860;28;20030;-78
2021/04/16 13:53:21;;;;;;;1.73;1.10;;;;;;;16.92;38.92;102061.88;4980010;28;20029;-79
2021/04/16 13:55:46;;;;;;;2.30;1.13;;;;;;;17.31;38.18;102057.06;5013502;28;20394;-79
2021/04/16 13:58:12;;;;;;;4.60;1.20;;;;;;;17.30;38.06;102060.16;5012241;28;20030;-78